Time;durP1;ratioP1;P1;durP2;ratioP2;P2;SDS_P1;SDS_P2;PMS_P1;PMS_P2;Temp;Humidity;BMP_temperature;BMP_pressure;BME280_temperature;BME280_humidity;BME280_pressure;Samples;Min_cycle;Max_cycle;Signal;HPM_P1;HPM_P2
2022/09/12 00:01:47;;;;;;;4.10;3.80;;;11.60;77.40;;;;;;5050817;28;20469;-52
2022/09/12 00:04:14;;;;;;;4.30;3.90;;;11.60;79.10;;;;;;5052751;28;20462;-51
2022/09/12 00:06:40;;;;;;;3.50;3.30;;;11.60;77.50;;;;;;5047699;28;21030;-51
2022/09/12 00:09:11;;;;;;;4.00;3.60;;;11.60;63.90;;;;;;5049165;28;20474;-51
2022/09/12 00:11:41;;;;;;;5.43;3.57;;;11.50;72.70;;;;;;5050040;28;20937;-52
2022/09/12 00:14:10;;;;;;;5.73;3.47;;;11.50;76.40;;;;;;5050355;28;20498;-52
2022/09/12 00:16:37;;;;;;;6.00;3.67;;;11.50;79.30;;;;;;5045299;28;20485;-52
2022/09/12 00:19:05;;;;;;;3.27;3.03;;;11.50;74.10;;;;;;5049627;28;20519;-51
2022/09/12 00:21:33;;;;;;;4.03;3.73;;;11.40;76.80;;;;;;5050089;28;20466;-51
2022/09/12 00:24:00;;;;;;;5.83;3.97;;;11.40;81.50;;;;;;5044829;28;20459;-52
2022/09/12 00:26:26;;;;;;;4.40;3.80;;;11.30;85.70;;;;;;5044532;28;20481;-51
2022/09/12 00:28:55;;;;;;;5.40;3.63;;;11.30;89.80;;;;;;5040436;28;20462;-51
2022/09/12 00:31:23;;;;;;;3.67;3.37;;;11.30;82.00;;;;;;5043589;28;20880;-52
2022/09/12 00:33:50;;;;;;;3.53;3.23;;;11.30;84.70;;;;;;5049221;28;20535;-51
2022/09/12 00:36:20;;;;;;;3.07;2.80;;;11.20;87.50;;;;;;5048363;28;20485;-51
2022/09/12 00:38:47;;;;;;;12.20;3.27;;;11.20;89.90;;;;;;5047379;28;20952;-52
2022/09/12 00:41:19;;;;;;;3.90;3.60;;;11.10;92.20;;;;;;5046418;28;20553;-52
2022/09/12 00:43:47;;;;;;;3.20;3.00;;;11.10;90.10;;;;;;5048151;28;21054;-51
2022/09/12 00:46:26;;;;;;;3.00;2.80;;;11.10;93.10;;;;;;5045116;28;20545;-51
2022/09/12 00:48:58;;;;;;;4.37;3.43;;;11.10;83.30;;;;;;5049004;28;20507;-53
2022/09/12 00:51:25;;;;;;;3.33;3.03;;;11.10;82.30;;;;;;5047694;28;20466;-53
2022/09/12 00:53:54;;;;;;;3.37;3.13;;;11.10;72.20;;;;;;5046451;28;20971;-53
2022/09/12 00:56:23;;;;;;;3.27;3.07;;;11.10;74.70;;;;;;5054867;28;20478;-52
2022/09/12 00:58:55;;;;;;;3.30;2.70;;;11.00;86.70;;;;;;5048387;28;20470;-52
2022/09/12 01:01:23;;;;;;;2.87;2.67;;;10.90;92.80;;;;;;5046738;28;20876;-52
2022/09/12 01:03:50;;;;;;;3.43;3.13;;;10.90;88.30;;;;;;5047294;28;20984;-52
2022/09/12 01:06:22;;;;;;;2.80;2.70;;;10.90;94.70;;;;;;5047503;28;20490;-52
2022/09/12 01:08:51;;;;;;;2.90;2.70;;;10.90;87.30;;;;;;5044632;28;20450;-53
2022/09/12 01:11:19;;;;;;;3.33;3.13;;;11.00;73.20;;;;;;5048187;28;20461;-53
2022/09/12 01:13:46;;;;;;;4.00;3.50;;;10.90;84.30;;;;;;5049037;28;20587;-52
2022/09/12 01:16:12;;;;;;;3.20;2.90;;;10.90;93.10;;;;;;5044133;28;20990;-52
2022/09/12 01:18:55;;;;;;;3.30;3.10;;;10.80;92.70;;;;;;5047672;28;20470;-53
2022/09/12 01:21:34;;;;;;;3.10;2.90;;;10.90;78.10;;;;;;5042726;28;20493;-53
2022/09/12 01:24:37;;;;;;;3.33;3.10;;;10.80;80.50;;;;;;5042477;28;20472;-53
2022/09/12 01:27:30;;;;;;;3.00;2.80;;;10.80;79.90;;;;;;5044592;28;20535;-53
2022/09/12 01:30:21;;;;;;;5.37;3.10;;;10.80;88.10;;;;;;5048588;28;20454;-52
2022/09/12 01:33:03;;;;;;;3.57;3.30;;;10.80;83.00;;;;;;5047832;28;20488;-53
2022/09/12 01:35:36;;;;;;;3.10;2.80;;;10.70;89.60;;;;;;5045782;28;20531;-53
2022/09/12 01:38:11;;;;;;;3.03;2.83;;;10.70;75.70;;;;;;5065867;22;20456;-51
2022/09/12 01:40:47;;;;;;;3.67;3.30;;;10.70;83.40;;;;;;5026087;28;20496;-51
2022/09/12 01:43:21;;;;;;;4.23;3.13;;;10.70;77.70;;;;;;5029268;28;20470;-51
2022/09/12 01:45:58;;;;;;;3.10;2.90;;;10.70;83.50;;;;;;5027985;28;20482;-51
2022/09/12 01:48:28;;;;;;;3.83;3.47;;;10.60;90.30;;;;;;5026696;28;20475;-51
2022/09/12 01:50:59;;;;;;;8.80;3.30;;;10.60;99.00;;;;;;5024737;28;20506;-52
2022/09/12 01:53:29;;;;;;;3.23;2.93;;;10.50;99.90;;;;;;5026425;28;20508;-52
2022/09/12 01:56:03;;;;;;;9.83;3.40;;;10.50;99.80;;;;;;5027061;28;20454;-51
2022/09/12 01:58:38;;;;;;;5.03;3.07;;;10.40;99.90;;;;;;5025384;28;20544;-51
2022/09/12 02:01:09;;;;;;;4.73;3.10;;;10.40;98.90;;;;;;5029723;28;20473;-51
2022/09/12 02:03:43;;;;;;;3.20;3.00;;;10.40;99.90;;;;;;5019628;28;20532;-52
2022/09/12 02:06:16;;;;;;;3.60;3.07;;;10.40;99.90;;;;;;5025109;28;20564;-51
2022/09/12 02:08:47;;;;;;;2.97;2.77;;;10.40;94.80;;;;;;5028096;28;20482;-51
2022/09/12 02:11:14;;;;;;;3.33;3.13;;;10.40;88.00;;;;;;5027298;28;20531;-51
2022/09/12 02:13:43;;;;;;;3.40;3.20;;;10.40;99.90;;;;;;5025322;28;20810;-51
2022/09/12 02:16:15;;;;;;;3.87;3.07;;;10.40;89.90;;;;;;5028129;28;20467;-51
2022/09/12 02:18:46;;;;;;;2.83;2.63;;;10.30;90.40;;;;;;5029875;28;20907;-52
2022/09/12 02:21:14;;;;;;;2.80;2.70;;;10.30;96.70;;;;;;5026454;28;20458;-51
2022/09/12 02:23:45;;;;;;;2.47;2.37;;;10.40;84.80;;;;;;5025240;28;20462;-51
2022/09/12 02:26:18;;;;;;;2.90;2.70;;;10.40;94.00;;;;;;5028712;28;20548;-51
2022/09/12 02:28:45;;;;;;;3.30;3.00;;;10.30;92.70;;;;;;5022146;28;20844;-51
2022/09/12 02:31:22;;;;;;;3.17;2.97;;;10.30;99.90;;;;;;5026319;28;20498;-52
2022/09/12 02:33:56;;;;;;;3.10;2.80;;;10.20;99.90;;;;;;5025914;28;20467;-51
2022/09/12 02:36:34;;;;;;;3.43;3.10;;;10.20;91.20;;;;;;5026563;28;20463;-51
2022/09/12 02:39:01;;;;;;;4.83;3.83;;;10.20;91.30;;;;;;5027259;28;20493;-51
2022/09/12 02:41:27;;;;;;;3.67;3.37;;;10.20;92.20;;;;;;5026240;28;20533;-51
2022/09/12 02:43:55;;;;;;;3.83;3.63;;;10.20;88.40;;;;;;5022541;28;20510;-51
2022/09/12 02:46:28;;;;;;;2.97;2.80;;;10.20;88.90;;;;;;5026551;28;20556;-52
2022/09/12 02:48:55;;;;;;;3.27;3.07;;;10.20;90.50;;;;;;5021881;28;20483;-51
2022/09/12 02:51:22;;;;;;;4.00;3.13;;;10.20;96.50;;;;;;5032692;28;20466;-55
2022/09/12 02:53:49;;;;;;;3.50;3.30;;;10.10;98.80;;;;;;5025971;28;20517;-52
2022/09/12 02:56:21;;;;;;;4.07;2.80;;;10.10;99.90;;;;;;5027334;28;20515;-51
2022/09/12 02:58:48;;;;;;;3.77;3.47;;;10.10;99.90;;;;;;5034800;28;20481;-51
2022/09/12 03:01:27;;;;;;;3.70;3.40;;;10.00;99.90;;;;;;5019183;28;20948;-51
2022/09/12 03:04:12;;;;;;;3.43;3.13;;;10.00;99.90;;;;;;5026183;28;20535;-51
2022/09/12 03:06:46;;;;;;;3.37;3.17;;;10.00;99.90;;;;;;5029196;28;20838;-51
2022/09/12 03:09:19;;;;;;;3.03;2.77;;;10.00;99.90;;;;;;5028340;28;20509;-51
2022/09/12 03:12:03;;;;;;;3.20;2.80;;;10.00;99.90;;;;;;5027690;28;20458;-51
2022/09/12 03:14:49;;;;;;;3.30;3.10;;;10.00;99.90;;;;;;5026097;28;20458;-51
2022/09/12 03:17:26;;;;;;;5.40;4.20;;;10.00;99.90;;;;;;5028912;28;20512;-51
2022/09/12 03:19:58;;;;;;;4.30;3.90;;;10.00;96.80;;;;;;5032549;28;21102;-51
2022/09/12 03:22:30;;;;;;;4.40;4.00;;;9.90;98.50;;;;;;5028531;28;20470;-52
2022/09/12 03:25:05;;;;;;;4.20;3.90;;;10.00;94.10;;;;;;5030479;28;20467;-52
2022/09/12 03:27:36;;;;;;;3.90;3.60;;;9.90;88.70;;;;;;5030772;28;20505;-51
2022/09/12 03:30:05;;;;;;;4.03;3.60;;;9.90;93.70;;;;;;5027290;28;20492;-52
2022/09/12 03:32:43;;;;;;;4.20;3.80;;;9.90;97.60;;;;;;5032476;28;20458;-52
2022/09/12 03:35:11;;;;;;;4.43;3.70;;;9.90;99.80;;;;;;5029791;28;20462;-51
2022/09/12 03:37:38;;;;;;;4.07;3.50;;;9.90;96.20;;;;;;5026108;28;20532;-51
2022/09/12 03:40:07;;;;;;;9.33;3.47;;;9.90;97.30;;;;;;5030795;28;20466;-52
2022/09/12 03:42:34;;;;;;;4.73;4.10;;;9.90;96.80;;;;;;5030379;28;20956;-51
2022/09/12 03:45:01;;;;;;;5.57;4.80;;;9.90;99.90;;;;;;5030936;28;20458;-51
2022/09/12 03:47:28;;;;;;;5.30;4.60;;;9.90;99.90;;;;;;5030183;28;20483;-52
2022/09/12 03:49:55;;;;;;;5.60;5.10;;;9.90;99.90;;;;;;5030417;28;20995;-52
2022/09/12 03:52:22;;;;;;;4.63;4.23;;;9.80;99.90;;;;;;5032698;28;21018;-52
2022/09/12 03:54:49;;;;;;;5.80;3.97;;;9.80;99.90;;;;;;5030266;28;20484;-51
2022/09/12 03:57:16;;;;;;;5.87;3.80;;;9.90;92.60;;;;;;5031837;28;20455;-52
2022/09/12 03:59:42;;;;;;;5.80;4.47;;;9.90;97.50;;;;;;5029930;28;21061;-51
2022/09/12 04:02:11;;;;;;;3.77;3.47;;;9.80;99.90;;;;;;5029160;28;20493;-52
2022/09/12 04:04:38;;;;;;;4.43;4.03;;;9.80;99.90;;;;;;5030553;28;20518;-52
2022/09/12 04:07:06;;;;;;;4.70;3.80;;;9.80;99.40;;;;;;5030084;28;20900;-51
2022/09/12 04:09:32;;;;;;;3.77;3.50;;;9.70;99.90;;;;;;5028511;28;20478;-52
2022/09/12 04:11:59;;;;;;;6.30;3.83;;;9.80;99.90;;;;;;5025469;28;20459;-51
2022/09/12 04:14:25;;;;;;;5.23;3.30;;;9.70;99.90;;;;;;5030303;28;20528;-51
2022/09/12 04:16:52;;;;;;;4.10;3.70;;;9.80;92.70;;;;;;5031724;28;20509;-50
2022/09/12 04:19:19;;;;;;;3.67;3.37;;;9.70;99.90;;;;;;5028340;28;20482;-51
2022/09/12 04:21:45;;;;;;;5.93;3.67;;;9.70;99.60;;;;;;5025937;28;20878;-52
2022/09/12 04:24:13;;;;;;;4.53;4.13;;;9.70;99.90;;;;;;5029172;28;21028;-51
2022/09/12 04:26:40;;;;;;;5.87;3.70;;;9.70;99.90;;;;;;5028991;28;20872;-51
2022/09/12 04:29:06;;;;;;;11.63;3.53;;;9.60;99.90;;;;;;5029917;28;20490;-51
2022/09/12 04:31:33;;;;;;;3.80;3.50;;;9.60;99.90;;;;;;5027282;28;20517;-50
2022/09/12 04:34:01;;;;;;;4.00;3.70;;;9.60;99.90;;;;;;5027103;28;20455;-50
2022/09/12 04:36:28;;;;;;;4.20;3.87;;;9.60;99.90;;;;;;5028663;28;20956;-51
2022/09/12 04:38:55;;;;;;;3.60;3.10;;;9.60;99.90;;;;;;5021901;28;20556;-53
2022/09/12 04:41:25;;;;;;;4.13;3.83;;;9.60;99.90;;;;;;5023739;28;20477;-52
2022/09/12 04:43:54;;;;;;;5.97;3.40;;;9.60;99.90;;;;;;5030012;28;20965;-53
2022/09/12 04:46:21;;;;;;;4.40;3.63;;;9.60;99.90;;;;;;5029842;28;20529;-53
2022/09/12 04:48:48;;;;;;;5.03;4.10;;;9.60;99.90;;;;;;5028346;28;20479;-52
2022/09/12 04:51:17;;;;;;;3.53;3.23;;;9.70;99.90;;;;;;5025629;28;20874;-53
2022/09/12 04:53:48;;;;;;;6.40;3.10;;;9.70;99.90;;;;;;5026238;28;20458;-51
2022/09/12 04:56:15;;;;;;;4.43;4.03;;;9.60;99.90;;;;;;5025582;28;21034;-53
2022/09/12 04:58:43;;;;;;;6.00;5.40;;;9.70;99.90;;;;;;5029306;28;20486;-51
2022/09/12 05:01:12;;;;;;;4.43;4.03;;;9.70;99.90;;;;;;5024123;28;20467;-53
2022/09/12 05:03:42;;;;;;;5.23;4.53;;;9.80;75.20;;;;;;5025897;28;20459;-52
2022/09/12 05:06:11;;;;;;;6.73;4.60;;;9.80;87.20;;;;;;5025923;28;20494;-52
2022/09/12 05:08:38;;;;;;;9.60;4.40;;;9.80;82.90;;;;;;5022579;28;21071;-53
2022/09/12 05:11:07;;;;;;;8.27;5.07;;;9.80;82.10;;;;;;5025600;28;20463;-52
2022/09/12 05:13:34;;;;;;;6.50;4.30;;;9.80;77.00;;;;;;5027190;28;20459;-52
2022/09/12 05:16:04;;;;;;;5.40;4.90;;;9.80;76.20;;;;;;5031936;28;20556;-52
2022/09/12 05:18:32;;;;;;;4.73;4.43;;;9.80;74.50;;;;;;5026657;28;20766;-53
2022/09/12 05:20:59;;;;;;;7.90;5.10;;;9.90;70.60;;;;;;5029857;28;20837;-52
2022/09/12 05:23:26;;;;;;;6.30;4.70;;;9.80;71.00;;;;;;5028229;28;20524;-53
2022/09/12 05:25:54;;;;;;;5.00;4.47;;;9.80;70.70;;;;;;5025053;28;20458;-52
2022/09/12 05:28:22;;;;;;;4.67;4.27;;;9.90;59.70;;;;;;5026617;28;20538;-52
2022/09/12 05:30:59;;;;;;;4.40;4.00;;;9.90;66.10;;;;;;5026439;28;20462;-53
2022/09/12 05:33:27;;;;;;;5.50;4.33;;;9.90;66.60;;;;;;5030754;28;20454;-52
2022/09/12 05:35:53;;;;;;;4.63;4.13;;;10.00;65.80;;;;;;5028813;28;20458;-52
2022/09/12 05:38:20;;;;;;;5.60;4.60;;;10.00;68.40;;;;;;5031556;28;20490;-51
2022/09/12 05:40:46;;;;;;;6.10;5.50;;;10.00;67.70;;;;;;5025739;28;20868;-51
2022/09/12 05:43:13;;;;;;;4.57;4.17;;;10.10;66.70;;;;;;5025012;28;20471;-51
2022/09/12 05:45:40;;;;;;;6.60;5.20;;;10.20;65.30;;;;;;5025791;28;20807;-51
2022/09/12 05:48:07;;;;;;;7.10;6.50;;;10.20;62.90;;;;;;5019086;28;20492;-51
2022/09/12 05:50:35;;;;;;;5.70;5.20;;;10.30;61.20;;;;;;5029787;28;20529;-52
2022/09/12 05:53:02;;;;;;;7.30;5.80;;;10.30;60.80;;;;;;5027786;28;20467;-52
2022/09/12 05:55:30;;;;;;;8.30;6.40;;;10.40;59.60;;;;;;5023864;28;21205;-54
2022/09/12 05:57:56;;;;;;;6.53;5.60;;;10.50;57.30;;;;;;5029181;28;20455;-53
2022/09/12 06:00:23;;;;;;;5.83;5.23;;;10.60;54.20;;;;;;5022055;28;20458;-53
2022/09/12 06:02:52;;;;;;;5.97;5.37;;;10.70;50.40;;;;;;5026520;28;20513;-52
2022/09/12 06:05:18;;;;;;;5.77;5.30;;;10.80;48.30;;;;;;5025385;28;20455;-51
2022/09/12 06:07:47;;;;;;;5.87;5.37;;;10.90;46.50;;;;;;5025526;28;20483;-51
2022/09/12 06:10:14;;;;;;;6.70;5.27;;;10.90;46.10;;;;;;5028448;28;20489;-52
2022/09/12 06:12:42;;;;;;;5.80;5.40;;;11.00;44.20;;;;;;5021078;28;20467;-52
2022/09/12 06:15:09;;;;;;;6.40;5.80;;;11.10;43.00;;;;;;5024717;28;20459;-51
2022/09/12 06:17:36;;;;;;;8.93;5.33;;;11.20;41.30;;;;;;5034719;28;20554;-51
2022/09/12 06:20:03;;;;;;;5.67;5.27;;;11.30;38.40;;;;;;5027790;28;20487;-51
2022/09/12 06:22:30;;;;;;;5.43;5.03;;;11.40;35.40;;;;;;5022210;28;20458;-51
2022/09/12 06:24:58;;;;;;;5.43;5.03;;;11.40;35.60;;;;;;5023565;28;20458;-50
2022/09/12 06:27:25;;;;;;;5.90;5.40;;;11.50;34.70;;;;;;5024140;28;20482;-51
2022/09/12 06:29:52;;;;;;;7.60;5.00;;;11.60;33.90;;;;;;5027525;28;20478;-51
2022/09/12 06:32:18;;;;;;;8.23;5.83;;;11.60;30.00;;;;;;5029975;28;20891;-51
2022/09/12 06:34:47;;;;;;;5.57;5.07;;;11.70;27.20;;;;;;5025506;28;20516;-51
2022/09/12 06:37:14;;;;;;;13.13;5.93;;;11.80;24.80;;;;;;5030324;28;20536;-51
2022/09/12 06:39:40;;;;;;;5.97;5.37;;;11.90;23.60;;;;;;5034741;28;20475;-51
2022/09/12 06:42:08;;;;;;;6.13;5.70;;;12.00;22.70;;;;;;5028285;28;20466;-51
2022/09/12 06:44:36;;;;;;;5.93;5.43;;;12.10;21.90;;;;;;5029217;28;20454;-51
2022/09/12 06:47:02;;;;;;;6.57;6.07;;;12.10;20.60;;;;;;5032694;28;20488;-50
2022/09/12 06:49:29;;;;;;;10.83;6.70;;;12.20;72.80;;;;;;5023293;28;20537;-51
2022/09/12 06:51:56;;;;;;;8.37;6.77;;;12.30;79.70;;;;;;5027681;28;20979;-50
2022/09/12 06:54:25;;;;;;;6.83;5.97;;;12.30;81.00;;;;;;5041591;28;20872;-51
2022/09/12 06:56:52;;;;;;;6.70;6.10;;;12.40;85.90;;;;;;5023375;28;20469;-51
2022/09/12 06:59:19;;;;;;;11.30;7.00;;;12.50;85.60;;;;;;5033330;28;20536;-51
2022/09/12 07:01:46;;;;;;;10.90;6.80;;;12.50;90.50;;;;;;5027776;28;20512;-51
2022/09/12 07:04:13;;;;;;;9.10;5.70;;;12.60;98.40;;;;;;5029415;28;20466;-51
2022/09/12 07:06:43;;;;;;;8.20;7.07;;;12.70;99.90;;;;;;5031732;28;20544;-51
2022/09/12 07:09:13;;;;;;;7.10;6.50;;;12.80;99.90;;;;;;5045214;28;20468;-51
2022/09/12 07:11:41;;;;;;;7.03;6.43;;;12.90;99.90;;;;;;5027698;28;20459;-51
2022/09/12 07:14:10;;;;;;;7.93;6.70;;;12.90;85.50;;;;;;5029809;28;20466;-51
2022/09/12 07:16:38;;;;;;;6.77;6.10;;;13.00;90.00;;;;;;5027124;28;20532;-51
2022/09/12 07:19:06;;;;;;;6.67;6.00;;;13.10;81.80;;;;;;5025425;28;20486;-51
2022/09/12 07:21:35;;;;;;;10.03;6.60;;;13.20;90.80;;;;;;5023768;28;20458;-51
2022/09/12 07:24:02;;;;;;;8.97;6.17;;;13.40;97.20;;;;;;5027014;28;20466;-51
2022/09/12 07:26:29;;;;;;;6.73;5.77;;;13.60;94.50;;;;;;5030328;28;20467;-51
2022/09/12 07:28:58;;;;;;;6.67;6.00;;;13.60;85.00;;;;;;5032502;28;20489;-51
2022/09/12 07:31:26;;;;;;;5.97;5.47;;;13.70;77.00;;;;;;5027637;28;20474;-51
2022/09/12 07:33:54;;;;;;;6.20;5.60;;;13.80;20.00;;;;;;5027259;28;20556;-51
2022/09/12 07:36:22;;;;;;;6.23;5.83;;;13.80;23.10;;;;;;5025681;28;20458;-52
2022/09/12 07:38:54;;;;;;;5.17;4.70;;;13.90;26.20;;;;;;5029579;28;20482;-51
2022/09/12 07:41:22;;;;;;;5.50;5.00;;;13.90;29.90;;;;;;5028801;28;20463;-52
2022/09/12 07:43:51;;;;;;;6.80;4.80;;;14.00;31.80;;;;;;5029839;28;20494;-52
2022/09/12 07:46:18;;;;;;;6.40;5.13;;;14.10;34.80;;;;;;5027906;28;20465;-54
2022/09/12 07:48:48;;;;;;;5.27;4.83;;;14.20;40.10;;;;;;5028854;28;20557;-52
2022/09/12 07:51:17;;;;;;;5.00;4.60;;;14.30;45.20;;;;;;5027134;28;22232;-53
2022/09/12 07:53:44;;;;;;;4.40;4.10;;;14.30;51.00;;;;;;5031640;28;20518;-52
2022/09/12 07:56:12;;;;;;;9.93;4.57;;;14.40;53.70;;;;;;5030454;28;20972;-54
2022/09/12 07:58:40;;;;;;;5.27;4.73;;;14.60;58.00;;;;;;5029888;28;20478;-51
2022/09/12 08:01:09;;;;;;;4.00;3.60;;;14.60;73.00;;;;;;5030096;28;20470;-51
2022/09/12 08:03:36;;;;;;;4.07;3.77;;;14.70;87.70;;;;;;5028578;28;21051;-52
2022/09/12 08:06:05;;;;;;;5.40;4.10;;;14.80;99.90;;;;;;5028852;28;20462;-52
2022/09/12 08:08:33;;;;;;;3.40;3.10;;;15.00;99.90;;;;;;5028391;28;21049;-52
2022/09/12 08:10:59;;;;;;;4.30;2.93;;;15.10;99.90;;;;;;5027864;28;20466;-53
2022/09/12 08:13:27;;;;;;;3.13;2.90;;;15.20;99.90;;;;;;5023813;28;20525;-52
2022/09/12 08:15:58;;;;;;;3.70;3.40;;;15.30;99.90;;;;;;5022703;28;20463;-52
2022/09/12 08:18:25;;;;;;;5.30;4.00;;;15.40;99.90;;;;;;5027181;28;20502;-51
2022/09/12 08:20:56;;;;;;;3.90;3.57;;;15.50;99.90;;;;;;5023914;28;20605;-51
2022/09/12 08:23:23;;;;;;;3.47;2.90;;;15.60;99.90;;;;;;5028439;28;21054;-51
2022/09/12 08:25:51;;;;;;;2.87;2.67;;;15.80;99.90;;;;;;5028751;28;20465;-52
2022/09/12 08:28:18;;;;;;;4.93;2.77;;;15.90;99.90;;;;;;5027126;28;20492;-53
2022/09/12 08:30:45;;;;;;;2.00;1.87;;;16.00;99.90;;;;;;5028777;28;21094;-52
2022/09/12 08:33:12;;;;;;;2.00;1.90;;;16.00;44.00;;;;;;5025443;28;20879;-53
2022/09/12 08:35:38;;;;;;;2.70;2.50;;;16.10;37.80;;;;;;5028485;28;20516;-52
2022/09/12 08:38:05;;;;;;;3.53;2.70;;;16.20;53.20;;;;;;5027639;28;20487;-52
2022/09/12 08:40:33;;;;;;;3.37;3.07;;;16.30;57.00;;;;;;5018198;28;20466;-51
2022/09/12 08:43:06;;;;;;;2.30;2.20;;;16.30;72.20;;;;;;5030900;28;20914;-51
2022/09/12 08:45:38;;;;;;;2.90;2.03;;;16.40;97.10;;;;;;5028064;28;20463;-52
2022/09/12 08:48:09;;;;;;;4.63;1.90;;;16.60;91.40;;;;;;5025135;28;20486;-52
2022/09/12 08:50:36;;;;;;;6.00;2.10;;;16.70;99.90;;;;;;5024609;28;21581;-51
2022/09/12 08:53:06;;;;;;;1.70;1.60;;;16.80;99.90;;;;;;5021649;28;20464;-50
2022/09/12 08:55:35;;;;;;;3.23;1.50;;;16.90;99.90;;;;;;5020046;28;20520;-52
2022/09/12 08:58:11;;;;;;;1.50;1.40;;;16.90;99.90;;;;;;5019826;28;20482;-52
2022/09/12 09:00:43;;;;;;;1.97;1.80;;;17.10;99.90;;;;;;5024764;28;20455;-52
2022/09/12 09:03:43;;;;;;;2.07;1.30;;;17.20;99.90;;;;;;5021919;28;20463;-52
2022/09/12 09:06:22;;;;;;;2.90;1.20;;;17.30;99.90;;;;;;5020572;28;20472;-52
2022/09/12 09:09:01;;;;;;;3.07;1.40;;;17.40;99.90;;;;;;5029105;28;20494;-52
2022/09/12 09:11:40;;;;;;;1.00;1.00;;;17.60;99.90;;;;;;5026358;28;20976;-52
2022/09/12 09:17:10;;;;;;;1.10;1.00;;;17.80;99.90;;;;;;5022529;28;20605;-52
2022/09/12 09:19:42;;;;;;;2.00;1.40;;;17.80;99.90;;;;;;5027091;28;20482;-51
2022/09/12 09:22:16;;;;;;;1.43;1.33;;;18.00;99.90;;;;;;5030396;28;20443;-51
2022/09/12 09:24:48;;;;;;;3.00;1.13;;;18.10;99.90;;;;;;5026945;28;20905;-51
2022/09/12 09:27:26;;;;;;;1.40;1.30;;;18.10;33.50;;;;;;5029802;28;20458;-51
2022/09/12 09:29:55;;;;;;;1.03;0.93;;;18.30;38.70;;;;;;5032857;28;20848;-51
2022/09/12 09:32:27;;;;;;;2.97;1.33;;;18.40;37.20;;;;;;5027964;28;20454;-51
2022/09/12 09:34:54;;;;;;;2.03;1.30;;;18.40;55.10;;;;;;5032187;28;20458;-51
2022/09/12 09:37:29;;;;;;;1.80;1.70;;;18.40;61.10;;;;;;5028699;28;20459;-52
2022/09/12 09:40:07;;;;;;;1.53;1.30;;;18.30;61.10;;;;;;5029087;28;20524;-51
2022/09/12 09:42:44;;;;;;;2.50;1.50;;;18.30;52.10;;;;;;5025860;28;21047;-52
2022/09/12 09:45:18;;;;;;;2.60;1.60;;;18.40;37.40;;;;;;5020899;28;20467;-51
2022/09/12 09:47:46;;;;;;;4.10;1.37;;;18.50;53.90;;;;;;5026594;28;20465;-51
2022/09/12 09:50:16;;;;;;;1.30;1.27;;;18.40;45.80;;;;;;5028143;28;20463;-51
2022/09/12 09:52:43;;;;;;;4.40;2.10;;;18.50;56.50;;;;;;5025600;28;20466;-51
2022/09/12 09:55:17;;;;;;;1.40;1.40;;;18.60;68.90;;;;;;5027099;28;20463;-52
2022/09/12 09:57:46;;;;;;;2.70;1.23;;;18.60;76.00;;;;;;5025210;28;20451;-51
2022/09/12 10:00:32;;;;;;;1.50;1.33;;;18.60;61.10;;;;;;5025404;28;20494;-52
2022/09/12 10:03:24;;;;;;;1.57;1.30;;;18.70;61.40;;;;;;5022171;28;20544;-52
2022/09/12 10:05:52;;;;;;;1.30;1.10;;;18.80;84.20;;;;;;5025856;28;20517;-52
2022/09/12 10:08:25;;;;;;;3.10;1.53;;;18.90;71.80;;;;;;5029482;28;20563;-51
2022/09/12 10:11:00;;;;;;;1.90;1.20;;;18.90;84.80;;;;;;5034911;28;20458;-51
2022/09/12 10:13:37;;;;;;;3.80;1.27;;;19.00;74.80;;;;;;5026946;28;20489;-51
2022/09/12 10:16:16;;;;;;;1.20;1.13;;;19.10;82.10;;;;;;5023610;28;20987;-52
2022/09/12 10:18:43;;;;;;;1.67;1.57;;;19.10;88.40;;;;;;5022364;28;20980;-51
2022/09/12 10:21:16;;;;;;;5.23;1.37;;;19.20;89.50;;;;;;5026021;28;20470;-51
2022/09/12 10:23:46;;;;;;;1.33;1.23;;;19.30;94.60;;;;;;5024467;28;20466;-52
2022/09/12 10:26:15;;;;;;;1.33;1.20;;;19.20;99.90;;;;;;5023684;28;20467;-51
2022/09/12 10:28:45;;;;;;;0.90;0.90;;;19.10;99.90;;;;;;5028142;28;20494;-51
2022/09/12 10:31:16;;;;;;;2.50;1.27;;;19.10;99.90;;;;;;5021943;28;20532;-51
2022/09/12 10:33:50;;;;;;;1.30;0.93;;;19.20;99.90;;;;;;5027264;28;20454;-51
2022/09/12 10:36:17;;;;;;;1.93;1.20;;;19.20;99.90;;;;;;5024819;28;20459;-51
2022/09/12 10:38:50;;;;;;;1.03;1.03;;;19.30;99.90;;;;;;5025678;28;20911;-51
2022/09/12 10:41:17;;;;;;;1.67;1.23;;;19.50;99.90;;;;;;5021865;28;20455;-51
2022/09/12 10:43:45;;;;;;;0.60;0.60;;;19.80;99.90;;;;;;5029545;28;20455;-52
2022/09/12 10:46:27;;;;;;;2.80;1.10;;;19.70;99.90;;;;;;5026702;28;20462;-51
2022/09/12 10:49:13;;;;;;;1.27;1.07;;;19.60;99.90;;;;;;5024263;28;20482;-51
2022/09/12 10:51:40;;;;;;;1.77;0.83;;;19.50;99.90;;;;;;5022171;28;20947;-51
2022/09/12 10:54:12;;;;;;;0.80;0.80;;;19.50;99.90;;;;;;5030890;28;20506;-51
2022/09/12 10:56:46;;;;;;;1.93;0.80;;;19.30;99.90;;;;;;5028310;28;20830;-51
2022/09/12 10:59:25;;;;;;;1.33;1.00;;;19.10;99.90;;;;;;5028850;28;20478;-51
2022/09/12 11:01:58;;;;;;;0.93;0.93;;;18.90;99.90;;;;;;5025392;28;20565;-52
2022/09/12 11:04:32;;;;;;;0.87;0.87;;;18.80;99.90;;;;;;5028646;28;20463;-51
2022/09/12 11:07:18;;;;;;;0.93;0.93;;;18.70;99.90;;;;;;5021342;28;21030;-51
2022/09/12 11:09:53;;;;;;;0.90;0.90;;;18.50;94.40;;;;;;5026066;28;21004;-52
2022/09/12 11:12:29;;;;;;;7.23;1.07;;;18.40;85.00;;;;;;5024584;28;20519;-51
2022/09/12 11:15:10;;;;;;;0.83;0.83;;;18.40;72.50;;;;;;5025695;28;20508;-52
2022/09/12 11:17:50;;;;;;;1.43;1.10;;;18.30;74.70;;;;;;5023059;28;20486;-51
2022/09/12 11:20:40;;;;;;;1.30;1.30;;;18.20;71.70;;;;;;5020944;28;20462;-51
2022/09/12 11:23:43;;;;;;;4.30;1.50;;;18.20;70.70;;;;;;5010982;28;20462;-52
2022/09/12 11:26:23;;;;;;;3.77;1.03;;;18.20;66.40;;;;;;5027488;28;20511;-51
2022/09/12 11:29:00;;;;;;;1.43;1.33;;;18.20;63.20;;;;;;5027788;28;20488;-50
2022/09/12 11:31:47;;;;;;;4.93;1.73;;;18.20;67.40;;;;;;5030359;28;20499;-51
2022/09/12 11:34:22;;;;;;;10.90;3.13;;;18.20;68.80;;;;;;5023075;28;20477;-51
2022/09/12 11:37:01;;;;;;;17.80;2.20;;;18.20;66.70;;;;;;5029496;28;20462;-50
2022/09/12 11:39:34;;;;;;;2.40;1.67;;;18.20;59.10;;;;;;5028373;28;20573;-51
2022/09/12 11:42:05;;;;;;;3.00;1.53;;;18.20;60.60;;;;;;5023504;28;20521;-51
2022/09/12 11:44:37;;;;;;;1.50;1.40;;;18.20;67.10;;;;;;5028843;28;20819;-51
2022/09/12 11:47:06;;;;;;;2.00;1.67;;;18.40;58.70;;;;;;5025284;28;20463;-50
2022/09/12 11:49:39;;;;;;;1.47;1.13;;;18.50;80.20;;;;;;5030643;28;20493;-51
2022/09/12 11:52:14;;;;;;;1.43;1.33;;;18.60;68.60;;;;;;5027962;28;20533;-51
2022/09/12 11:54:44;;;;;;;1.10;1.10;;;18.60;62.20;;;;;;5027968;28;20466;-51
2022/09/12 11:57:16;;;;;;;1.10;1.00;;;18.70;71.80;;;;;;5027137;28;20462;-51
2022/09/12 11:59:47;;;;;;;2.87;1.40;;;18.70;65.10;;;;;;5024356;28;20536;-50
2022/09/12 12:02:21;;;;;;;1.87;1.10;;;18.90;71.90;;;;;;5030995;28;20478;-51
2022/09/12 12:05:01;;;;;;;1.63;0.90;;;19.00;91.10;;;;;;5021425;28;20487;-52
2022/09/12 12:07:34;;;;;;;1.43;1.00;;;19.10;99.90;;;;;;5027794;28;20454;-51
2022/09/12 12:10:01;;;;;;;2.73;1.13;;;19.10;99.90;;;;;;5027523;28;20490;-51
2022/09/12 12:12:29;;;;;;;0.93;0.93;;;19.30;99.90;;;;;;5025933;28;20459;-51
2022/09/12 12:14:56;;;;;;;1.90;1.10;;;19.40;99.90;;;;;;5025048;28;20521;-51
2022/09/12 12:17:25;;;;;;;1.00;1.00;;;19.40;99.90;;;;;;5029645;28;20467;-50
2022/09/12 12:20:01;;;;;;;1.60;1.00;;;19.50;99.90;;;;;;5028521;28;20478;-52
2022/09/12 12:22:28;;;;;;;0.90;0.90;;;19.40;99.90;;;;;;5024728;28;20463;-51
2022/09/12 12:25:01;;;;;;;2.90;0.80;;;19.50;99.90;;;;;;5027937;28;20524;-51
2022/09/12 12:27:47;;;;;;;0.87;0.80;;;19.50;99.90;;;;;;5021664;28;20525;-52
2022/09/12 12:30:52;;;;;;;1.03;0.90;;;19.70;99.90;;;;;;5021654;28;21374;-52
2022/09/12 12:33:55;;;;;;;1.43;1.00;;;19.70;99.90;;;;;;5025966;28;20481;-51
2022/09/12 12:36:41;;;;;;;0.80;0.80;;;19.70;99.90;;;;;;5021300;28;20477;-51
2022/09/12 12:39:48;;;;;;;1.47;0.93;;;19.60;99.90;;;;;;5024810;28;20573;-52
2022/09/12 12:43:03;;;;;;;1.10;0.90;;;19.50;99.90;;;;;;5019922;28;20459;-51
2022/09/12 12:45:48;;;;;;;1.23;1.07;;;19.50;99.90;;;;;;5023076;28;20936;-52
2022/09/12 12:48:19;;;;;;;1.47;1.10;;;19.60;99.90;;;;;;5022302;28;20553;-51
2022/09/12 12:50:46;;;;;;;1.93;0.90;;;19.60;99.90;;;;;;5029482;28;20780;-52
2022/09/12 12:53:23;;;;;;;1.77;1.00;;;19.60;99.90;;;;;;5028920;28;20498;-51
2022/09/12 12:55:51;;;;;;;1.10;1.10;;;19.80;99.90;;;;;;5028674;28;20972;-53
2022/09/12 12:58:31;;;;;;;1.00;1.00;;;19.70;99.90;;;;;;5022054;28;20483;-52
2022/09/12 13:01:09;;;;;;;2.53;0.90;;;19.80;99.90;;;;;;5022333;28;20537;-52
2022/09/12 13:03:39;;;;;;;1.10;1.10;;;19.80;99.90;;;;;;5024215;28;20462;-52
2022/09/12 13:06:07;;;;;;;0.80;0.80;;;19.80;99.90;;;;;;5038074;28;20474;-52
2022/09/12 13:08:40;;;;;;;1.50;1.40;;;19.80;99.90;;;;;;5027568;28;20486;-53
2022/09/12 13:11:10;;;;;;;1.07;0.97;;;19.90;99.90;;;;;;5034106;28;20516;-52
2022/09/12 13:13:40;;;;;;;2.47;1.43;;;19.90;99.90;;;;;;5018522;28;20467;-52